createdAt,value
2023-02-19T00:02:35.603Z,1.10
2023-02-19T00:05:21.024Z,1.27
2023-02-19T00:08:06.352Z,1.07
2023-02-19T00:10:51.698Z,1.20
2023-02-19T00:13:39.070Z,0.97
2023-02-19T00:16:27.412Z,1.00
2023-02-19T00:19:15.835Z,1.13
2023-02-19T00:22:01.271Z,1.10
2023-02-19T00:24:48.407Z,1.10
2023-02-19T00:27:34.827Z,1.17
2023-02-19T00:30:20.352Z,1.00
2023-02-19T00:33:05.636Z,1.10
2023-02-19T00:35:51.066Z,0.93
2023-02-19T00:38:37.811Z,1.00
2023-02-19T00:41:24.380Z,1.27
2023-02-19T00:44:11.445Z,1.00
2023-02-19T00:46:56.726Z,0.83
2023-02-19T00:49:41.994Z,1.00
2023-02-19T00:52:27.326Z,1.20
2023-02-19T00:55:12.593Z,0.93
2023-02-19T00:57:57.904Z,0.93
2023-02-19T01:00:43.046Z,1.13
2023-02-19T01:03:28.673Z,0.90
2023-02-19T01:06:16.247Z,0.90
2023-02-19T01:09:01.950Z,0.97
2023-02-19T01:11:47.738Z,0.90
2023-02-19T01:14:34.041Z,0.90
2023-02-19T01:17:19.271Z,0.80
2023-02-19T01:20:05.065Z,0.90
2023-02-19T01:22:50.504Z,1.03
2023-02-19T01:25:39.209Z,1.10
2023-02-19T01:28:24.524Z,1.00
2023-02-19T01:31:14.077Z,0.90
2023-02-19T01:34:02.189Z,0.70
2023-02-19T01:36:47.597Z,0.80
2023-02-19T01:39:32.763Z,1.10
2023-02-19T01:42:18.294Z,0.77
2023-02-19T01:45:25.517Z,0.90
2023-02-19T01:48:35.578Z,0.87
2023-02-19T01:51:22.367Z,0.90
2023-02-19T01:54:11.824Z,0.97
2023-02-19T01:56:58.498Z,1.10
2023-02-19T01:59:44.538Z,0.80
2023-02-19T02:02:30.197Z,0.97
2023-02-19T02:05:29.928Z,0.90
2023-02-19T02:08:36.126Z,0.80
2023-02-19T02:11:21.835Z,0.97
2023-02-19T02:14:07.012Z,1.13
2023-02-19T02:17:02.038Z,0.93
2023-02-19T02:20:15.447Z,1.00
2023-02-19T02:23:26.567Z,0.82
2023-02-19T02:26:36.240Z,0.93
2023-02-19T02:30:05.105Z,1.00
2023-02-19T02:32:53.483Z,0.63
2023-02-19T02:35:46.313Z,0.90
2023-02-19T02:38:35.175Z,0.90
2023-02-19T02:41:21.272Z,0.70
2023-02-19T02:44:06.519Z,0.90
2023-02-19T02:46:51.977Z,0.80
2023-02-19T02:49:58.330Z,0.73
2023-02-19T02:53:05.015Z,0.90
2023-02-19T02:55:53.342Z,0.80
2023-02-19T02:58:39.178Z,0.70
2023-02-19T03:01:51.710Z,0.90
2023-02-19T03:05:08.466Z,0.73
2023-02-19T03:08:00.643Z,0.80
2023-02-19T03:10:55.707Z,0.80
2023-02-19T03:13:59.870Z,0.70
2023-02-19T03:17:06.540Z,0.70
2023-02-19T03:19:56.235Z,0.80
2023-02-19T03:22:44.821Z,0.80
2023-02-19T03:25:52.692Z,0.80
2023-02-19T03:29:10.314Z,0.70
2023-02-19T03:32:06.258Z,0.70
2023-02-19T03:34:57.079Z,0.52
2023-02-19T03:37:49.682Z,0.67
2023-02-19T03:40:43.949Z,0.90
2023-02-19T03:43:32.539Z,0.70
2023-02-19T03:46:34.051Z,0.70
2023-02-19T03:49:35.275Z,0.70
2023-02-19T03:52:43.301Z,0.60
2023-02-19T03:55:37.862Z,0.60
2023-02-19T03:58:32.217Z,0.70
2023-02-19T04:01:28.441Z,0.60
2023-02-19T04:04:21.253Z,0.60
2023-02-19T04:07:06.834Z,0.70
2023-02-19T04:09:55.389Z,0.60
2023-02-19T04:12:45.937Z,0.80
2023-02-19T04:15:34.405Z,0.80
2023-02-19T04:18:25.697Z,0.73
2023-02-19T04:21:12.067Z,0.80
2023-02-19T04:24:02.585Z,0.60
2023-02-19T04:26:48.281Z,0.60
2023-02-19T04:29:33.837Z,0.57
2023-02-19T04:32:19.158Z,0.80
2023-02-19T04:35:04.538Z,0.40
2023-02-19T04:37:50.100Z,0.67
2023-02-19T04:40:35.499Z,0.50
2023-02-19T04:43:21.109Z,0.83
2023-02-19T04:46:07.013Z,0.80
2023-02-19T04:48:52.327Z,0.73
2023-02-19T04:51:39.065Z,0.70
2023-02-19T04:54:24.980Z,0.60
2023-02-19T04:57:10.209Z,0.50
2023-02-19T04:59:55.444Z,0.50
2023-02-19T05:05:18.600Z,0.70
2023-02-19T05:08:03.618Z,0.67
2023-02-19T05:10:48.443Z,0.43
2023-02-19T05:13:33.815Z,0.70
2023-02-19T05:16:18.300Z,0.53
2023-02-19T05:19:02.910Z,0.50
2023-02-19T05:21:48.168Z,0.60
2023-02-19T05:24:33.818Z,0.57
2023-02-19T05:27:19.078Z,0.70
2023-02-19T05:30:04.595Z,0.70
2023-02-19T05:32:50.289Z,0.73
2023-02-19T05:35:48.100Z,0.50
2023-02-19T05:38:33.635Z,0.50
2023-02-19T05:41:22.663Z,0.67
2023-02-19T05:44:10.672Z,0.50
2023-02-19T05:46:56.247Z,0.60
2023-02-19T05:49:41.441Z,0.53
2023-02-19T05:52:26.715Z,0.70
2023-02-19T05:55:12.358Z,0.70
2023-02-19T05:57:57.896Z,0.50
2023-02-19T06:00:43.061Z,0.70
2023-02-19T06:03:28.230Z,0.60
2023-02-19T06:06:15.308Z,0.50
2023-02-19T06:09:00.925Z,0.43
2023-02-19T06:11:46.692Z,0.50
2023-02-19T06:14:32.186Z,0.37
2023-02-19T06:17:18.584Z,0.70
2023-02-19T06:20:03.974Z,0.50
2023-02-19T06:22:52.434Z,0.70
2023-02-19T06:25:37.856Z,0.70
2023-02-19T06:28:23.254Z,0.50
2023-02-19T06:31:09.827Z,0.50
2023-02-19T06:33:55.529Z,0.60
2023-02-19T06:36:40.814Z,0.60
2023-02-19T06:39:26.811Z,0.50
2023-02-19T06:42:12.637Z,0.60
2023-02-19T06:44:58.135Z,0.70
2023-02-19T06:47:43.347Z,0.50
2023-02-19T06:50:28.777Z,0.50
2023-02-19T06:53:14.136Z,0.70
2023-02-19T06:56:08.538Z,0.77
2023-02-19T06:58:56.572Z,0.50
2023-02-19T07:01:43.470Z,0.80
2023-02-19T07:04:28.972Z,0.50
2023-02-19T07:07:14.241Z,0.40
2023-02-19T07:09:59.536Z,0.60
2023-02-19T07:12:44.935Z,0.53
2023-02-19T07:15:30.344Z,0.60
2023-02-19T07:18:15.661Z,0.70
2023-02-19T07:21:10.627Z,0.30
2023-02-19T07:23:56.630Z,0.60
2023-02-19T07:34:29.584Z,1.35
2023-02-19T07:37:14.376Z,1.10
2023-02-19T07:39:59.201Z,1.40
2023-02-19T07:42:44.305Z,1.20
2023-02-19T07:45:29.005Z,1.20
2023-02-19T07:48:14.561Z,1.20
2023-02-19T07:51:00.684Z,0.83
2023-02-19T07:53:47.060Z,1.07
2023-02-19T07:56:32.300Z,0.87
2023-02-19T07:59:19.449Z,0.70
2023-02-19T08:02:23.575Z,0.90
2023-02-19T08:05:08.887Z,0.90
2023-02-19T08:07:54.332Z,0.93
2023-02-19T08:10:59.385Z,1.30
2023-02-19T08:13:44.672Z,1.10
2023-02-19T08:16:42.578Z,1.10
2023-02-19T08:19:28.488Z,1.10
2023-02-19T08:22:16.279Z,1.20
2023-02-19T08:25:01.692Z,1.17
2023-02-19T08:27:46.973Z,1.00
2023-02-19T08:30:33.630Z,1.70
2023-02-19T08:33:21.809Z,1.30
2023-02-19T08:36:09.443Z,1.50
2023-02-19T08:38:54.830Z,1.43
2023-02-19T08:41:40.015Z,1.37
2023-02-19T08:44:25.217Z,1.50
2023-02-19T08:47:10.501Z,1.20
2023-02-19T08:49:56.023Z,1.10
2023-02-19T08:52:41.193Z,1.20
2023-02-19T08:55:27.077Z,1.40
2023-02-19T08:58:12.580Z,1.27
2023-02-19T09:00:57.967Z,1.20
2023-02-19T09:03:43.308Z,1.30
2023-02-19T09:06:28.886Z,1.20
2023-02-19T09:09:14.043Z,1.40
2023-02-19T09:11:59.834Z,1.57
2023-02-19T09:14:45.248Z,1.60
2023-02-19T09:17:30.556Z,1.93
2023-02-19T09:20:15.849Z,1.53
2023-02-19T09:23:01.307Z,1.60
2023-02-19T09:25:46.638Z,1.53
2023-02-19T09:28:31.903Z,1.97
2023-02-19T09:31:17.369Z,1.90
2023-02-19T09:34:03.160Z,2.97
2023-02-19T09:36:50.112Z,2.10
2023-02-19T09:39:35.919Z,2.27
2023-02-19T09:42:29.847Z,2.07
2023-02-19T09:45:23.045Z,1.83
2023-02-19T09:50:57.317Z,2.50
2023-02-19T09:53:46.620Z,2.10
2023-02-19T09:56:43.712Z,2.43
2023-02-19T09:59:35.905Z,2.20
2023-02-19T10:02:24.325Z,1.90
2023-02-19T10:05:14.850Z,2.10
2023-02-19T10:08:00.626Z,2.30
2023-02-19T10:10:46.117Z,2.00
2023-02-19T10:14:12.795Z,2.03
2023-02-19T10:17:03.278Z,1.90
2023-02-19T10:19:48.879Z,2.07
2023-02-19T10:22:36.559Z,1.33
2023-02-19T10:25:22.159Z,2.00
2023-02-19T10:28:14.925Z,2.00
2023-02-19T10:31:03.287Z,1.60
2023-02-19T10:33:57.052Z,1.50
2023-02-19T10:36:45.205Z,1.40
2023-02-19T10:39:30.261Z,1.70
2023-02-19T10:42:21.703Z,1.83
2023-02-19T10:45:18.765Z,1.87
2023-02-19T10:48:05.798Z,1.90
2023-02-19T10:50:58.194Z,1.83
2023-02-19T10:53:49.145Z,1.83
2023-02-19T10:56:34.697Z,2.10
2023-02-19T10:59:28.728Z,1.73
2023-02-19T11:02:20.105Z,1.57
2023-02-19T11:05:12.148Z,1.77
2023-02-19T11:07:57.547Z,1.87
2023-02-19T11:10:48.227Z,1.70
2023-02-19T11:13:38.028Z,2.00
2023-02-19T11:16:36.729Z,1.70
2023-02-19T11:19:22.494Z,1.93
2023-02-19T11:22:32.167Z,1.87
2023-02-19T11:25:17.805Z,1.83
2023-02-19T11:28:20.638Z,1.60
2023-02-19T11:31:24.266Z,1.33
2023-02-19T11:34:21.211Z,1.63
2023-02-19T11:37:13.446Z,1.70
2023-02-19T11:39:58.837Z,1.50
2023-02-19T11:43:03.744Z,2.17
2023-02-19T11:45:55.781Z,1.63
2023-02-19T11:48:59.640Z,1.83
2023-02-19T11:57:43.831Z,1.60
2023-02-19T12:00:30.990Z,1.47
2023-02-19T12:03:35.590Z,2.00
2023-02-19T12:06:27.095Z,1.60
2023-02-19T12:09:33.178Z,1.87
2023-02-19T12:13:00.580Z,1.70
2023-02-19T12:16:08.310Z,2.10
2023-02-19T12:18:59.724Z,1.90
2023-02-19T12:22:09.723Z,1.57
2023-02-19T12:25:07.314Z,2.13
2023-02-19T12:27:55.899Z,2.10
2023-02-19T12:30:58.566Z,1.80
2023-02-19T12:33:59.082Z,1.73
2023-02-19T12:36:56.511Z,1.67
2023-02-19T12:39:55.953Z,1.83
2023-02-19T12:42:59.804Z,1.57
2023-02-19T12:45:49.043Z,1.70
2023-02-19T12:48:43.121Z,2.50
2023-02-19T12:51:43.670Z,6.60
2023-02-19T12:54:42.287Z,29.93
2023-02-19T12:57:33.171Z,90.17
2023-02-19T13:00:22.141Z,93.80
2023-02-19T13:03:21.037Z,80.87
2023-02-19T13:06:16.869Z,69.10
2023-02-19T13:09:14.360Z,56.70
2023-02-19T13:12:07.782Z,67.03
2023-02-19T13:15:05.331Z,77.45
2023-02-19T13:17:55.336Z,87.97
2023-02-19T13:20:43.443Z,85.17
2023-02-19T13:23:49.670Z,80.37
2023-02-19T13:26:44.404Z,73.57
2023-02-19T13:29:53.403Z,70.07
2023-02-19T13:33:11.844Z,65.23
2023-02-19T13:36:06.391Z,64.10
2023-02-19T13:38:52.201Z,61.47
2023-02-19T13:42:02.637Z,60.37
2023-02-19T13:44:48.483Z,55.53
2023-02-19T13:47:49.338Z,55.43
2023-02-19T13:50:35.041Z,53.13
2023-02-19T13:53:45.247Z,53.97
2023-02-19T13:56:31.385Z,49.40
2023-02-19T13:59:25.598Z,48.30
2023-02-19T14:02:28.870Z,48.10
2023-02-19T14:05:14.324Z,47.03
2023-02-19T14:07:59.867Z,44.80
2023-02-19T14:11:02.510Z,44.73
2023-02-19T14:13:51.745Z,42.83
2023-02-19T14:16:40.469Z,42.17
2023-02-19T14:19:46.441Z,41.00
2023-02-19T14:22:52.119Z,40.83
2023-02-19T14:25:53.424Z,39.03
2023-02-19T14:28:46.005Z,41.03
2023-02-19T14:31:36.559Z,38.22
2023-02-19T14:34:27.156Z,38.57
2023-02-19T14:37:21.702Z,38.23
2023-02-19T14:40:07.653Z,36.87
2023-02-19T14:42:57.270Z,35.20
2023-02-19T14:45:47.377Z,34.47
2023-02-19T14:48:38.224Z,34.37
2023-02-19T14:51:40.111Z,32.10
2023-02-19T14:54:57.824Z,32.07
2023-02-19T14:57:49.035Z,29.00
2023-02-19T15:00:39.865Z,31.20
2023-02-19T15:03:37.141Z,29.60
2023-02-19T15:06:24.449Z,29.07
2023-02-19T15:09:09.846Z,28.07
2023-02-19T15:11:57.087Z,28.07
2023-02-19T15:14:44.226Z,27.17
2023-02-19T15:17:32.372Z,27.10
2023-02-19T15:20:25.616Z,25.90
2023-02-19T15:23:18.921Z,24.58
2023-02-19T15:29:11.292Z,26.40
2023-02-19T15:31:58.906Z,25.40
2023-02-19T15:34:57.582Z,24.97
2023-02-19T15:37:42.968Z,24.53
2023-02-19T15:40:32.447Z,24.13
2023-02-19T15:43:25.129Z,24.47
2023-02-19T15:46:20.254Z,23.65
2023-02-19T15:49:16.138Z,23.73
2023-02-19T15:52:09.164Z,23.13
2023-02-19T15:55:04.628Z,23.25
2023-02-19T15:57:58.512Z,22.67
2023-02-19T16:00:52.097Z,22.23
2023-02-19T16:03:38.143Z,22.00
2023-02-19T16:06:25.017Z,21.73
2023-02-19T16:09:20.997Z,21.33
2023-02-19T16:12:24.649Z,22.33
2023-02-19T16:18:05.017Z,16.57
2023-02-19T16:20:50.277Z,18.90
2023-02-19T16:23:35.933Z,19.37
2023-02-19T16:26:21.961Z,18.13
2023-02-19T16:29:19.419Z,17.70
2023-02-19T16:32:16.937Z,17.00
2023-02-19T16:35:02.357Z,17.37
2023-02-19T16:37:58.431Z,15.70
2023-02-19T16:40:54.156Z,15.53
2023-02-19T16:43:42.230Z,15.37
2023-02-19T16:46:27.654Z,15.10
2023-02-19T16:49:13.051Z,15.57
2023-02-19T16:52:02.139Z,15.27
2023-02-19T16:54:49.702Z,15.30
2023-02-19T16:57:35.261Z,14.83
2023-02-19T17:00:22.115Z,14.20
2023-02-19T17:03:11.501Z,13.43
2023-02-19T17:05:57.021Z,14.47
2023-02-19T17:08:44.265Z,13.30
2023-02-19T17:11:29.522Z,13.43
2023-02-19T17:14:14.875Z,12.63
2023-02-19T17:17:01.979Z,12.50
2023-02-19T17:19:48.516Z,13.07
2023-02-19T17:22:34.679Z,12.23
2023-02-19T17:25:20.186Z,12.77
2023-02-19T17:28:05.718Z,11.77
2023-02-19T17:30:50.899Z,12.63
2023-02-19T17:33:37.139Z,12.30
2023-02-19T17:36:31.215Z,12.40
2023-02-19T17:39:16.638Z,11.40
2023-02-19T17:42:01.952Z,11.47
2023-02-19T17:44:47.585Z,10.47
2023-02-19T17:47:32.939Z,10.50
2023-02-19T17:50:21.617Z,9.70
2023-02-19T17:53:07.737Z,9.70
2023-02-19T17:55:52.945Z,9.10
2023-02-19T17:58:38.170Z,8.40
2023-02-19T18:01:24.098Z,8.50
2023-02-19T18:04:09.427Z,7.60
2023-02-19T18:06:55.896Z,7.57
2023-02-19T18:09:41.757Z,7.37
2023-02-19T18:12:28.416Z,7.10
2023-02-19T18:15:20.956Z,6.87
2023-02-19T18:18:06.272Z,5.88
2023-02-19T18:20:51.989Z,6.37
2023-02-19T18:23:37.782Z,5.87
2023-02-19T18:26:24.654Z,5.50
2023-02-19T18:29:10.442Z,6.27
2023-02-19T18:31:56.352Z,5.70
2023-02-19T18:34:41.312Z,5.33
2023-02-19T18:37:27.900Z,5.40
2023-02-19T18:40:13.526Z,5.37
2023-02-19T18:42:59.608Z,5.53
2023-02-19T18:45:46.566Z,5.27
2023-02-19T18:48:32.384Z,5.90
2023-02-19T18:51:17.939Z,6.30
2023-02-19T18:54:04.104Z,6.13
2023-02-19T18:56:49.949Z,6.40
2023-02-19T18:59:35.534Z,5.80
2023-02-19T19:02:20.825Z,5.27
2023-02-19T19:05:06.446Z,5.90
2023-02-19T19:07:54.201Z,4.87
2023-02-19T19:10:39.679Z,5.00
2023-02-19T19:13:25.496Z,5.23
2023-02-19T19:16:11.146Z,5.33
2023-02-19T19:18:57.101Z,4.37
2023-02-19T19:21:43.116Z,4.13
2023-02-19T19:24:28.631Z,4.27
2023-02-19T19:27:14.369Z,4.20
2023-02-19T19:30:01.628Z,3.73
2023-02-19T19:32:52.169Z,4.10
2023-02-19T19:35:37.634Z,3.83
2023-02-19T19:38:22.805Z,4.00
2023-02-19T19:41:08.119Z,4.00
2023-02-19T19:43:53.438Z,3.60
2023-02-19T19:46:45.635Z,4.77
2023-02-19T19:49:31.330Z,4.30
2023-02-19T19:52:16.681Z,3.77
2023-02-19T19:55:02.114Z,4.60
2023-02-19T19:57:49.644Z,4.27
2023-02-19T20:00:35.191Z,3.83
2023-02-19T20:03:21.562Z,3.83
2023-02-19T20:06:07.178Z,4.20
2023-02-19T20:08:52.444Z,3.93
2023-02-19T20:11:49.797Z,3.60
2023-02-19T20:14:37.765Z,4.00
2023-02-19T20:17:27.281Z,3.63
2023-02-19T20:20:12.878Z,3.80
2023-02-19T20:22:58.381Z,3.50
2023-02-19T20:25:43.471Z,3.50
2023-02-19T20:28:28.676Z,3.50
2023-02-19T20:31:14.307Z,3.63
2023-02-19T20:34:00.556Z,3.97
2023-02-19T20:36:47.563Z,3.40
2023-02-19T20:39:34.627Z,3.80
2023-02-19T20:42:19.955Z,4.47
2023-02-19T20:45:06.012Z,4.23
2023-02-19T20:47:51.652Z,4.13
2023-02-19T20:50:36.871Z,4.00
2023-02-19T20:53:22.151Z,4.43
2023-02-19T20:56:07.629Z,4.50
2023-02-19T20:58:52.927Z,3.80
2023-02-19T21:01:38.254Z,4.03
2023-02-19T21:04:23.871Z,4.17
2023-02-19T21:07:09.342Z,3.93
2023-02-19T21:09:54.834Z,3.73
2023-02-19T21:12:41.919Z,3.17
2023-02-19T21:15:27.400Z,3.73
2023-02-19T21:18:12.644Z,4.00
2023-02-19T21:20:57.828Z,3.70
2023-02-19T21:23:43.209Z,3.30
2023-02-19T21:26:36.941Z,3.60
2023-02-19T21:29:22.686Z,3.50
2023-02-19T21:32:08.088Z,3.30
2023-02-19T21:34:53.937Z,3.30
2023-02-19T21:37:42.277Z,3.40
2023-02-19T21:40:29.772Z,3.40
2023-02-19T21:43:15.211Z,2.83
2023-02-19T21:46:00.578Z,3.20
2023-02-19T21:48:53.194Z,3.13
2023-02-19T21:51:43.668Z,3.45
2023-02-19T21:54:29.161Z,3.27
2023-02-19T21:57:14.393Z,3.47
2023-02-19T21:59:59.707Z,3.20
2023-02-19T22:02:45.141Z,3.30
2023-02-19T22:05:30.329Z,3.27
2023-02-19T22:08:17.401Z,2.97
2023-02-19T22:11:02.938Z,2.93
2023-02-19T22:13:48.252Z,3.00
2023-02-19T22:16:33.540Z,2.90
2023-02-19T22:19:18.787Z,2.70
2023-02-19T22:22:04.484Z,2.80
2023-02-19T22:24:49.420Z,2.70
2023-02-19T22:27:34.808Z,3.33
2023-02-19T22:30:20.289Z,3.20
2023-02-19T22:33:05.964Z,2.77
2023-02-19T22:35:51.389Z,2.73
2023-02-19T22:38:36.724Z,2.80
2023-02-19T22:41:22.631Z,2.90
2023-02-19T22:44:09.953Z,2.60
2023-02-19T22:46:56.556Z,2.83
2023-02-19T22:49:43.805Z,3.13
2023-02-19T22:52:29.170Z,3.07
2023-02-19T22:55:15.675Z,2.90
2023-02-19T22:58:01.174Z,3.00
2023-02-19T23:00:46.607Z,2.60
2023-02-19T23:03:32.168Z,3.03
2023-02-19T23:06:21.505Z,2.47
2023-02-19T23:09:13.948Z,2.53
2023-02-19T23:12:08.217Z,3.17
2023-02-19T23:14:53.571Z,3.13
2023-02-19T23:17:38.871Z,3.13
2023-02-19T23:20:24.269Z,3.07
2023-02-19T23:23:09.398Z,3.10
2023-02-19T23:25:54.618Z,2.53
2023-02-19T23:28:41.092Z,3.10
2023-02-19T23:31:26.988Z,2.63
2023-02-19T23:34:12.775Z,3.00
2023-02-19T23:37:00.177Z,2.80
2023-02-19T23:39:45.497Z,3.13
2023-02-19T23:42:31.502Z,2.23
2023-02-19T23:45:17.112Z,2.33
2023-02-19T23:48:02.324Z,2.70
2023-02-19T23:50:47.523Z,2.80
2023-02-19T23:53:32.840Z,2.83
2023-02-19T23:56:25.597Z,2.60
2023-02-19T23:59:10.922Z,2.55
